sensor_id;sensor_type;location;lat;lon;timestamp;temperature;humidity
7216;DHT22;3649;48.798;9.798;2023-02-28T00:00:34;4.20;95.00
7216;DHT22;3649;48.798;9.798;2023-02-28T00:03:02;4.20;95.00
7216;DHT22;3649;48.798;9.798;2023-02-28T00:05:29;4.20;95.00
7216;DHT22;3649;48.798;9.798;2023-02-28T00:07:56;4.20;95.10
7216;DHT22;3649;48.798;9.798;2023-02-28T00:10:29;4.20;95.10
7216;DHT22;3649;48.798;9.798;2023-02-28T00:12:59;4.10;95.20
7216;DHT22;3649;48.798;9.798;2023-02-28T00:15:27;4.10;95.20
7216;DHT22;3649;48.798;9.798;2023-02-28T00:17:54;4.20;95.30
7216;DHT22;3649;48.798;9.798;2023-02-28T00:20:21;4.20;95.20
7216;DHT22;3649;48.798;9.798;2023-02-28T00:22:50;4.20;95.30
7216;DHT22;3649;48.798;9.798;2023-02-28T00:25:20;4.20;95.40
7216;DHT22;3649;48.798;9.798;2023-02-28T00:27:47;4.20;95.50
7216;DHT22;3649;48.798;9.798;2023-02-28T00:30:17;4.20;95.40
7216;DHT22;3649;48.798;9.798;2023-02-28T00:32:45;4.10;95.50
7216;DHT22;3649;48.798;9.798;2023-02-28T00:35:12;3.30;95.20
7216;DHT22;3649;48.798;9.798;2023-02-28T00:37:39;4.20;95.70
7216;DHT22;3649;48.798;9.798;2023-02-28T00:40:07;4.20;95.80
7216;DHT22;3649;48.798;9.798;2023-02-28T00:42:34;4.20;95.80
7216;DHT22;3649;48.798;9.798;2023-02-28T00:45:02;4.20;95.70
7216;DHT22;3649;48.798;9.798;2023-02-28T00:47:31;4.20;95.80
7216;DHT22;3649;48.798;9.798;2023-02-28T00:50:00;4.20;95.90
7216;DHT22;3649;48.798;9.798;2023-02-28T00:52:27;4.10;96.00
7216;DHT22;3649;48.798;9.798;2023-02-28T00:54:54;4.10;96.10
7216;DHT22;3649;48.798;9.798;2023-02-28T00:57:21;3.90;96.20
7216;DHT22;3649;48.798;9.798;2023-02-28T00:59:48;4.00;96.30
7216;DHT22;3649;48.798;9.798;2023-02-28T01:02:15;4.10;96.40
7216;DHT22;3649;48.798;9.798;2023-02-28T01:04:41;4.10;96.40
7216;DHT22;3649;48.798;9.798;2023-02-28T01:07:09;4.10;96.40
7216;DHT22;3649;48.798;9.798;2023-02-28T01:09:35;4.10;96.50
7216;DHT22;3649;48.798;9.798;2023-02-28T01:12:03;4.10;96.50
7216;DHT22;3649;48.798;9.798;2023-02-28T01:14:30;4.10;96.60
7216;DHT22;3649;48.798;9.798;2023-02-28T01:16:56;4.10;96.60
7216;DHT22;3649;48.798;9.798;2023-02-28T01:19:23;4.10;96.60
7216;DHT22;3649;48.798;9.798;2023-02-28T01:21:50;4.10;96.70
7216;DHT22;3649;48.798;9.798;2023-02-28T01:24:16;4.00;96.70
7216;DHT22;3649;48.798;9.798;2023-02-28T01:26:43;4.00;96.90
7216;DHT22;3649;48.798;9.798;2023-02-28T01:29:10;4.00;96.90
7216;DHT22;3649;48.798;9.798;2023-02-28T01:31:37;4.00;96.90
7216;DHT22;3649;48.798;9.798;2023-02-28T01:34:04;4.00;97.10
7216;DHT22;3649;48.798;9.798;2023-02-28T01:36:31;3.90;97.00
7216;DHT22;3649;48.798;9.798;2023-02-28T01:38:57;3.90;97.20
7216;DHT22;3649;48.798;9.798;2023-02-28T01:41:28;4.00;97.20
7216;DHT22;3649;48.798;9.798;2023-02-28T01:44:02;4.10;97.10
7216;DHT22;3649;48.798;9.798;2023-02-28T01:46:32;4.20;97.10
7216;DHT22;3649;48.798;9.798;2023-02-28T01:49:07;4.20;97.00
7216;DHT22;3649;48.798;9.798;2023-02-28T01:51:41;4.30;97.10
7216;DHT22;3649;48.798;9.798;2023-02-28T01:54:17;4.20;97.10
7216;DHT22;3649;48.798;9.798;2023-02-28T01:57:04;4.10;97.20
7216;DHT22;3649;48.798;9.798;2023-02-28T01:59:39;4.00;97.30
7216;DHT22;3649;48.798;9.798;2023-02-28T02:02:13;4.00;97.30
7216;DHT22;3649;48.798;9.798;2023-02-28T02:04:54;4.00;97.40
7216;DHT22;3649;48.798;9.798;2023-02-28T02:07:23;4.10;97.40
7216;DHT22;3649;48.798;9.798;2023-02-28T02:10:00;4.10;97.40
7216;DHT22;3649;48.798;9.798;2023-02-28T02:13:02;4.10;97.30
7216;DHT22;3649;48.798;9.798;2023-02-28T02:15:36;4.00;97.40
7216;DHT22;3649;48.798;9.798;2023-02-28T02:18:26;3.90;97.60
7216;DHT22;3649;48.798;9.798;2023-02-28T02:29:28;3.90;97.70
7216;DHT22;3649;48.798;9.798;2023-02-28T02:32:32;4.00;97.60
7216;DHT22;3649;48.798;9.798;2023-02-28T02:46:46;3.90;97.70
7216;DHT22;3649;48.798;9.798;2023-02-28T02:49:20;3.80;97.80
7216;DHT22;3649;48.798;9.798;2023-02-28T02:51:48;3.70;97.90
7216;DHT22;3649;48.798;9.798;2023-02-28T02:54:25;3.60;97.90
7216;DHT22;3649;48.798;9.798;2023-02-28T02:56:58;3.60;98.00
7216;DHT22;3649;48.798;9.798;2023-02-28T02:59:25;3.60;98.10
7216;DHT22;3649;48.798;9.798;2023-02-28T03:01:57;3.70;98.10
7216;DHT22;3649;48.798;9.798;2023-02-28T03:04:30;3.90;98.10
7216;DHT22;3649;48.798;9.798;2023-02-28T03:06:58;3.80;97.90
7216;DHT22;3649;48.798;9.798;2023-02-28T03:09:26;3.80;98.00
7216;DHT22;3649;48.798;9.798;2023-02-28T03:11:55;3.70;98.10
7216;DHT22;3649;48.798;9.798;2023-02-28T03:19:52;3.60;98.20
7216;DHT22;3649;48.798;9.798;2023-02-28T03:22:45;3.70;98.20
7216;DHT22;3649;48.798;9.798;2023-02-28T03:28:09;3.70;98.10
7216;DHT22;3649;48.798;9.798;2023-02-28T03:33:17;3.80;98.30
7216;DHT22;3649;48.798;9.798;2023-02-28T03:35:51;3.80;98.20
7216;DHT22;3649;48.798;9.798;2023-02-28T03:41:20;3.80;98.30
7216;DHT22;3649;48.798;9.798;2023-02-28T03:44:23;3.90;98.40
7216;DHT22;3649;48.798;9.798;2023-02-28T03:46:58;3.80;98.20
7216;DHT22;3649;48.798;9.798;2023-02-28T03:49:31;3.80;98.20
7216;DHT22;3649;48.798;9.798;2023-02-28T03:52:01;3.80;98.30
7216;DHT22;3649;48.798;9.798;2023-02-28T03:54:31;3.70;98.40
7216;DHT22;3649;48.798;9.798;2023-02-28T03:59:42;3.70;98.50
7216;DHT22;3649;48.798;9.798;2023-02-28T04:02:10;3.70;98.50
7216;DHT22;3649;48.798;9.798;2023-02-28T04:04:37;3.70;98.50
7216;DHT22;3649;48.798;9.798;2023-02-28T04:07:06;3.70;98.50
7216;DHT22;3649;48.798;9.798;2023-02-28T04:09:34;3.80;98.60
7216;DHT22;3649;48.798;9.798;2023-02-28T04:12:00;3.80;98.60
7216;DHT22;3649;48.798;9.798;2023-02-28T04:14:27;3.70;98.50
7216;DHT22;3649;48.798;9.798;2023-02-28T04:16:54;3.70;98.60
7216;DHT22;3649;48.798;9.798;2023-02-28T04:19:20;3.70;98.70
7216;DHT22;3649;48.798;9.798;2023-02-28T04:21:49;3.70;98.70
7216;DHT22;3649;48.798;9.798;2023-02-28T04:24:20;3.70;98.70
7216;DHT22;3649;48.798;9.798;2023-02-28T04:26:49;4.90;99.10
7216;DHT22;3649;48.798;9.798;2023-02-28T04:29:22;3.70;98.60
7216;DHT22;3649;48.798;9.798;2023-02-28T04:31:49;3.80;98.60
7216;DHT22;3649;48.798;9.798;2023-02-28T04:34:16;3.70;98.60
7216;DHT22;3649;48.798;9.798;2023-02-28T04:36:45;3.80;98.60
7216;DHT22;3649;48.798;9.798;2023-02-28T04:39:12;3.80;98.50
7216;DHT22;3649;48.798;9.798;2023-02-28T04:41:39;3.80;98.60
7216;DHT22;3649;48.798;9.798;2023-02-28T04:44:06;3.80;98.60
7216;DHT22;3649;48.798;9.798;2023-02-28T04:46:33;3.90;98.40
7216;DHT22;3649;48.798;9.798;2023-02-28T04:49:00;3.90;98.40
7216;DHT22;3649;48.798;9.798;2023-02-28T04:51:26;3.80;98.50
7216;DHT22;3649;48.798;9.798;2023-02-28T04:53:54;3.80;98.40
7216;DHT22;3649;48.798;9.798;2023-02-28T04:56:21;3.80;98.40
7216;DHT22;3649;48.798;9.798;2023-02-28T04:58:49;3.80;98.60
7216;DHT22;3649;48.798;9.798;2023-02-28T05:01:20;3.90;98.50
7216;DHT22;3649;48.798;9.798;2023-02-28T05:03:47;3.90;98.50
7216;DHT22;3649;48.798;9.798;2023-02-28T05:06:15;3.80;98.50
7216;DHT22;3649;48.798;9.798;2023-02-28T05:08:42;3.80;98.70
7216;DHT22;3649;48.798;9.798;2023-02-28T05:11:15;3.90;98.70
7216;DHT22;3649;48.798;9.798;2023-02-28T05:13:43;3.90;98.70
7216;DHT22;3649;48.798;9.798;2023-02-28T05:16:09;3.90;98.80
7216;DHT22;3649;48.798;9.798;2023-02-28T05:18:37;3.90;98.80
7216;DHT22;3649;48.798;9.798;2023-02-28T05:21:04;3.90;98.70
7216;DHT22;3649;48.798;9.798;2023-02-28T05:23:32;3.90;98.80
7216;DHT22;3649;48.798;9.798;2023-02-28T05:26:00;3.80;98.80
7216;DHT22;3649;48.798;9.798;2023-02-28T05:28:28;3.80;99.00
7216;DHT22;3649;48.798;9.798;2023-02-28T05:30:56;3.90;98.90
7216;DHT22;3649;48.798;9.798;2023-02-28T05:33:23;4.00;98.70
7216;DHT22;3649;48.798;9.798;2023-02-28T05:35:50;4.00;98.70
7216;DHT22;3649;48.798;9.798;2023-02-28T05:38:17;4.00;98.60
7216;DHT22;3649;48.798;9.798;2023-02-28T05:40:44;3.90;98.60
7216;DHT22;3649;48.798;9.798;2023-02-28T05:43:11;3.80;98.60
7216;DHT22;3649;48.798;9.798;2023-02-28T05:45:38;3.80;98.60
7216;DHT22;3649;48.798;9.798;2023-02-28T05:48:05;3.90;98.80
7216;DHT22;3649;48.798;9.798;2023-02-28T05:50:32;3.90;98.60
7216;DHT22;3649;48.798;9.798;2023-02-28T05:52:59;3.90;98.60
7216;DHT22;3649;48.798;9.798;2023-02-28T05:55:26;3.80;98.60
7216;DHT22;3649;48.798;9.798;2023-02-28T05:57:52;3.80;98.50
7216;DHT22;3649;48.798;9.798;2023-02-28T06:00:19;3.80;98.70
7216;DHT22;3649;48.798;9.798;2023-02-28T06:02:46;3.70;98.80
7216;DHT22;3649;48.798;9.798;2023-02-28T06:05:15;3.80;98.80
7216;DHT22;3649;48.798;9.798;2023-02-28T06:07:43;3.80;98.70
7216;DHT22;3649;48.798;9.798;2023-02-28T06:10:11;3.80;98.70
7216;DHT22;3649;48.798;9.798;2023-02-28T06:12:38;3.90;98.80
7216;DHT22;3649;48.798;9.798;2023-02-28T06:15:05;3.90;98.80
7216;DHT22;3649;48.798;9.798;2023-02-28T06:17:32;4.00;98.70
7216;DHT22;3649;48.798;9.798;2023-02-28T06:19:58;4.00;98.60
7216;DHT22;3649;48.798;9.798;2023-02-28T06:22:25;3.90;98.60
7216;DHT22;3649;48.798;9.798;2023-02-28T06:24:53;3.90;98.70
7216;DHT22;3649;48.798;9.798;2023-02-28T06:27:21;3.90;98.60
7216;DHT22;3649;48.798;9.798;2023-02-28T06:29:48;3.90;98.60
7216;DHT22;3649;48.798;9.798;2023-02-28T06:32:15;4.00;98.80
7216;DHT22;3649;48.798;9.798;2023-02-28T06:34:42;4.00;98.60
7216;DHT22;3649;48.798;9.798;2023-02-28T06:37:09;4.00;98.60
7216;DHT22;3649;48.798;9.798;2023-02-28T06:39:36;4.00;98.70
7216;DHT22;3649;48.798;9.798;2023-02-28T06:42:03;4.00;98.60
7216;DHT22;3649;48.798;9.798;2023-02-28T06:44:30;4.00;98.70
7216;DHT22;3649;48.798;9.798;2023-02-28T06:47:03;4.00;98.70
7216;DHT22;3649;48.798;9.798;2023-02-28T06:49:32;4.00;98.60
7216;DHT22;3649;48.798;9.798;2023-02-28T06:51:59;4.00;98.70
7216;DHT22;3649;48.798;9.798;2023-02-28T06:54:26;4.00;98.80
7216;DHT22;3649;48.798;9.798;2023-02-28T06:56:53;4.20;98.80
7216;DHT22;3649;48.798;9.798;2023-02-28T06:59:23;4.10;99.00
7216;DHT22;3649;48.798;9.798;2023-02-28T07:01:50;4.10;98.70
7216;DHT22;3649;48.798;9.798;2023-02-28T07:04:17;4.10;98.60
7216;DHT22;3649;48.798;9.798;2023-02-28T07:06:44;4.10;98.60
7216;DHT22;3649;48.798;9.798;2023-02-28T07:09:10;4.10;98.50
7216;DHT22;3649;48.798;9.798;2023-02-28T07:11:37;4.10;98.60
7216;DHT22;3649;48.798;9.798;2023-02-28T07:14:04;4.10;98.70
7216;DHT22;3649;48.798;9.798;2023-02-28T07:16:30;4.20;98.60
7216;DHT22;3649;48.798;9.798;2023-02-28T07:18:57;4.20;98.60
7216;DHT22;3649;48.798;9.798;2023-02-28T07:21:24;5.10;99.10
7216;DHT22;3649;48.798;9.798;2023-02-28T07:23:51;4.30;98.60
7216;DHT22;3649;48.798;9.798;2023-02-28T07:26:19;4.20;98.40
7216;DHT22;3649;48.798;9.798;2023-02-28T07:28:47;4.30;98.50
7216;DHT22;3649;48.798;9.798;2023-02-28T07:31:15;4.30;98.50
7216;DHT22;3649;48.798;9.798;2023-02-28T07:33:42;4.30;98.50
7216;DHT22;3649;48.798;9.798;2023-02-28T07:36:15;4.20;98.40
7216;DHT22;3649;48.798;9.798;2023-02-28T07:38:44;4.20;98.40
7216;DHT22;3649;48.798;9.798;2023-02-28T07:41:19;4.20;98.50
7216;DHT22;3649;48.798;9.798;2023-02-28T07:43:46;4.20;98.60
7216;DHT22;3649;48.798;9.798;2023-02-28T07:46:16;4.20;98.40
7216;DHT22;3649;48.798;9.798;2023-02-28T07:48:43;4.20;98.50
7216;DHT22;3649;48.798;9.798;2023-02-28T07:51:10;4.10;98.50
7216;DHT22;3649;48.798;9.798;2023-02-28T07:53:37;4.20;98.60
7216;DHT22;3649;48.798;9.798;2023-02-28T07:56:04;4.20;98.60
7216;DHT22;3649;48.798;9.798;2023-02-28T07:58:31;4.30;98.50
7216;DHT22;3649;48.798;9.798;2023-02-28T08:01:06;4.30;98.40
7216;DHT22;3649;48.798;9.798;2023-02-28T08:03:33;4.30;98.40
7216;DHT22;3649;48.798;9.798;2023-02-28T08:06:00;4.30;98.50
7216;DHT22;3649;48.798;9.798;2023-02-28T08:08:27;4.30;98.40
7216;DHT22;3649;48.798;9.798;2023-02-28T08:11:02;4.40;98.50
7216;DHT22;3649;48.798;9.798;2023-02-28T08:13:30;4.40;98.40
7216;DHT22;3649;48.798;9.798;2023-02-28T08:15:57;4.30;98.50
7216;DHT22;3649;48.798;9.798;2023-02-28T08:18:24;4.50;98.50
7216;DHT22;3649;48.798;9.798;2023-02-28T08:20:51;4.40;98.40
7216;DHT22;3649;48.798;9.798;2023-02-28T08:23:18;4.40;98.20
7216;DHT22;3649;48.798;9.798;2023-02-28T08:25:53;4.20;98.10
7216;DHT22;3649;48.798;9.798;2023-02-28T08:28:22;4.20;98.30
7216;DHT22;3649;48.798;9.798;2023-02-28T08:30:52;4.10;98.40
7216;DHT22;3649;48.798;9.798;2023-02-28T08:33:19;4.20;98.50
7216;DHT22;3649;48.798;9.798;2023-02-28T08:35:46;4.20;98.40
7216;DHT22;3649;48.798;9.798;2023-02-28T08:38:13;4.20;98.30
7216;DHT22;3649;48.798;9.798;2023-02-28T08:40:39;4.30;98.30
7216;DHT22;3649;48.798;9.798;2023-02-28T08:43:07;4.30;98.20
7216;DHT22;3649;48.798;9.798;2023-02-28T08:45:34;4.30;98.20
7216;DHT22;3649;48.798;9.798;2023-02-28T08:48:00;4.30;98.20
7216;DHT22;3649;48.798;9.798;2023-02-28T08:50:27;4.30;98.30
7216;DHT22;3649;48.798;9.798;2023-02-28T08:52:54;4.30;98.20
7216;DHT22;3649;48.798;9.798;2023-02-28T08:55:24;4.30;98.30
7216;DHT22;3649;48.798;9.798;2023-02-28T08:57:54;4.30;98.20
7216;DHT22;3649;48.798;9.798;2023-02-28T09:00:24;4.40;98.10
7216;DHT22;3649;48.798;9.798;2023-02-28T09:02:52;4.50;98.20
7216;DHT22;3649;48.798;9.798;2023-02-28T09:05:19;4.50;98.20
7216;DHT22;3649;48.798;9.798;2023-02-28T09:07:45;4.60;98.50
7216;DHT22;3649;48.798;9.798;2023-02-28T09:10:13;4.60;98.20
7216;DHT22;3649;48.798;9.798;2023-02-28T09:12:40;4.70;98.20
7216;DHT22;3649;48.798;9.798;2023-02-28T09:15:08;4.70;97.90
7216;DHT22;3649;48.798;9.798;2023-02-28T09:17:35;4.70;97.90
7216;DHT22;3649;48.798;9.798;2023-02-28T09:20:02;4.70;98.00
7216;DHT22;3649;48.798;9.798;2023-02-28T09:22:29;4.70;98.10
7216;DHT22;3649;48.798;9.798;2023-02-28T09:24:56;4.70;97.90
7216;DHT22;3649;48.798;9.798;2023-02-28T09:27:23;4.70;97.90
7216;DHT22;3649;48.798;9.798;2023-02-28T09:29:50;4.80;97.90
7216;DHT22;3649;48.798;9.798;2023-02-28T09:32:17;4.80;97.80
7216;DHT22;3649;48.798;9.798;2023-02-28T09:34:45;4.80;97.80
7216;DHT22;3649;48.798;9.798;2023-02-28T09:37:12;4.90;97.70
7216;DHT22;3649;48.798;9.798;2023-02-28T09:39:38;5.00;97.40
7216;DHT22;3649;48.798;9.798;2023-02-28T09:42:05;5.00;97.50
7216;DHT22;3649;48.798;9.798;2023-02-28T09:44:40;5.00;97.50
7216;DHT22;3649;48.798;9.798;2023-02-28T09:47:31;5.10;97.40
7216;DHT22;3649;48.798;9.798;2023-02-28T09:50:17;5.20;97.30
7216;DHT22;3649;48.798;9.798;2023-02-28T09:52:49;5.20;97.20
7216;DHT22;3649;48.798;9.798;2023-02-28T09:55:25;5.40;96.90
7216;DHT22;3649;48.798;9.798;2023-02-28T09:58:00;5.50;96.80
7216;DHT22;3649;48.798;9.798;2023-02-28T10:00:33;5.50;96.80
7216;DHT22;3649;48.798;9.798;2023-02-28T10:05:48;5.70;96.30
7216;DHT22;3649;48.798;9.798;2023-02-28T10:08:29;5.70;96.40
7216;DHT22;3649;48.798;9.798;2023-02-28T10:11:06;5.80;96.30
7216;DHT22;3649;48.798;9.798;2023-02-28T10:24:43;5.60;95.90
7216;DHT22;3649;48.798;9.798;2023-02-28T10:27:22;5.50;96.10
7216;DHT22;3649;48.798;9.798;2023-02-28T10:29:51;5.60;96.20
7216;DHT22;3649;48.798;9.798;2023-02-28T10:32:21;5.60;96.30
7216;DHT22;3649;48.798;9.798;2023-02-28T10:37:37;5.80;96.30
7216;DHT22;3649;48.798;9.798;2023-02-28T10:40:24;5.80;96.10
7216;DHT22;3649;48.798;9.798;2023-02-28T10:45:40;5.90;95.90
7216;DHT22;3649;48.798;9.798;2023-02-28T10:56:15;5.90;96.00
7216;DHT22;3649;48.798;9.798;2023-02-28T11:01:45;5.80;96.20
7216;DHT22;3649;48.798;9.798;2023-02-28T11:07:21;5.80;96.10
7216;DHT22;3649;48.798;9.798;2023-02-28T11:09:53;5.80;96.20
7216;DHT22;3649;48.798;9.798;2023-02-28T11:12:26;5.90;96.30
7216;DHT22;3649;48.798;9.798;2023-02-28T11:15:01;6.10;96.40
7216;DHT22;3649;48.798;9.798;2023-02-28T11:17:30;6.00;96.40
7216;DHT22;3649;48.798;9.798;2023-02-28T11:20:06;6.10;96.50
7216;DHT22;3649;48.798;9.798;2023-02-28T11:22:37;6.10;96.20
7216;DHT22;3649;48.798;9.798;2023-02-28T11:25:30;6.10;96.20
7216;DHT22;3649;48.798;9.798;2023-02-28T11:28:02;4.70;95.60
7216;DHT22;3649;48.798;9.798;2023-02-28T11:30:40;6.20;96.30
7216;DHT22;3649;48.798;9.798;2023-02-28T11:33:32;6.30;96.40
7216;DHT22;3649;48.798;9.798;2023-02-28T11:36:09;6.40;96.30
7216;DHT22;3649;48.798;9.798;2023-02-28T11:38:39;6.30;95.90
7216;DHT22;3649;48.798;9.798;2023-02-28T11:47:09;6.60;96.30
7216;DHT22;3649;48.798;9.798;2023-02-28T11:57:52;6.80;95.90
7216;DHT22;3649;48.798;9.798;2023-02-28T12:00:40;6.80;95.60
7216;DHT22;3649;48.798;9.798;2023-02-28T12:03:17;6.80;95.10
7216;DHT22;3649;48.798;9.798;2023-02-28T12:05:53;6.90;94.90
7216;DHT22;3649;48.798;9.798;2023-02-28T12:08:25;6.80;95.00
7216;DHT22;3649;48.798;9.798;2023-02-28T12:11:34;6.90;95.10
7216;DHT22;3649;48.798;9.798;2023-02-28T12:16:49;6.90;94.90
7216;DHT22;3649;48.798;9.798;2023-02-28T12:27:56;7.20;95.50
7216;DHT22;3649;48.798;9.798;2023-02-28T12:30:52;7.30;95.00
7216;DHT22;3649;48.798;9.798;2023-02-28T12:33:22;7.10;95.10
7216;DHT22;3649;48.798;9.798;2023-02-28T12:35:58;7.10;95.20
7216;DHT22;3649;48.798;9.798;2023-02-28T12:38:34;7.20;95.00
7216;DHT22;3649;48.798;9.798;2023-02-28T12:41:09;7.30;94.80
7216;DHT22;3649;48.798;9.798;2023-02-28T12:43:46;7.40;94.80
7216;DHT22;3649;48.798;9.798;2023-02-28T12:46:27;7.60;95.10
7216;DHT22;3649;48.798;9.798;2023-02-28T12:48:57;7.50;95.00
7216;DHT22;3649;48.798;9.798;2023-02-28T12:51:25;7.50;94.70
7216;DHT22;3649;48.798;9.798;2023-02-28T12:56:52;7.40;94.60
7216;DHT22;3649;48.798;9.798;2023-02-28T13:00:00;7.40;94.60
7216;DHT22;3649;48.798;9.798;2023-02-28T13:02:51;7.40;94.60
7216;DHT22;3649;48.798;9.798;2023-02-28T13:09:03;7.50;94.70
7216;DHT22;3649;48.798;9.798;2023-02-28T13:11:38;7.60;94.50
7216;DHT22;3649;48.798;9.798;2023-02-28T13:22:05;7.60;94.90
7216;DHT22;3649;48.798;9.798;2023-02-28T13:24:52;7.70;95.10
7216;DHT22;3649;48.798;9.798;2023-02-28T13:27:31;6.90;94.60
7216;DHT22;3649;48.798;9.798;2023-02-28T13:29:59;7.60;95.10
7216;DHT22;3649;48.798;9.798;2023-02-28T13:32:31;7.70;95.00
7216;DHT22;3649;48.798;9.798;2023-02-28T13:40:29;7.80;95.20
7216;DHT22;3649;48.798;9.798;2023-02-28T13:43:08;7.70;95.20
7216;DHT22;3649;48.798;9.798;2023-02-28T13:45:35;7.60;95.10
7216;DHT22;3649;48.798;9.798;2023-02-28T13:48:24;7.70;95.20
7216;DHT22;3649;48.798;9.798;2023-02-28T13:50:53;7.80;95.00
7216;DHT22;3649;48.798;9.798;2023-02-28T13:53:34;7.80;95.20
7216;DHT22;3649;48.798;9.798;2023-02-28T14:03:57;7.80;95.10
7216;DHT22;3649;48.798;9.798;2023-02-28T14:06:31;7.70;95.10
7216;DHT22;3649;48.798;9.798;2023-02-28T14:09:26;7.70;94.90
7216;DHT22;3649;48.798;9.798;2023-02-28T14:11:54;7.70;95.10
7216;DHT22;3649;48.798;9.798;2023-02-28T14:17:04;7.70;95.10
7216;DHT22;3649;48.798;9.798;2023-02-28T14:19:34;7.70;95.20
7216;DHT22;3649;48.798;9.798;2023-02-28T14:22:05;7.70;95.10
7216;DHT22;3649;48.798;9.798;2023-02-28T14:27:22;7.80;95.10
7216;DHT22;3649;48.798;9.798;2023-02-28T14:37:52;7.80;95.10
7216;DHT22;3649;48.798;9.798;2023-02-28T14:40:29;7.80;95.20
7216;DHT22;3649;48.798;9.798;2023-02-28T14:43:01;7.80;94.90
7216;DHT22;3649;48.798;9.798;2023-02-28T14:45:33;7.90;95.10
7216;DHT22;3649;48.798;9.798;2023-02-28T14:48:05;7.90;94.90
7216;DHT22;3649;48.798;9.798;2023-02-28T14:50:36;7.90;94.90
7216;DHT22;3649;48.798;9.798;2023-02-28T14:53:09;7.90;95.00
7216;DHT22;3649;48.798;9.798;2023-02-28T14:55:44;7.90;95.00
7216;DHT22;3649;48.798;9.798;2023-02-28T14:58:27;7.90;95.00
7216;DHT22;3649;48.798;9.798;2023-02-28T15:01:00;7.90;95.20
7216;DHT22;3649;48.798;9.798;2023-02-28T15:03:37;8.00;95.20
7216;DHT22;3649;48.798;9.798;2023-02-28T15:06:15;8.10;95.10
7216;DHT22;3649;48.798;9.798;2023-02-28T15:08:44;8.30;95.00
7216;DHT22;3649;48.798;9.798;2023-02-28T15:11:19;8.30;95.20
7216;DHT22;3649;48.798;9.798;2023-02-28T15:13:53;8.30;94.90
7216;DHT22;3649;48.798;9.798;2023-02-28T15:16:41;8.20;94.80
7216;DHT22;3649;48.798;9.798;2023-02-28T15:19:36;8.20;94.80
7216;DHT22;3649;48.798;9.798;2023-02-28T15:22:17;8.10;94.60
7216;DHT22;3649;48.798;9.798;2023-02-28T15:24:48;7.10;94.20
7216;DHT22;3649;48.798;9.798;2023-02-28T15:27:23;8.00;94.80
7216;DHT22;3649;48.798;9.798;2023-02-28T15:30:05;7.90;94.90
7216;DHT22;3649;48.798;9.798;2023-02-28T15:32:36;7.90;95.00
7216;DHT22;3649;48.798;9.798;2023-02-28T15:38:01;7.90;95.10
7216;DHT22;3649;48.798;9.798;2023-02-28T15:40:33;7.90;95.20
7216;DHT22;3649;48.798;9.798;2023-02-28T15:43:26;7.90;95.20
7216;DHT22;3649;48.798;9.798;2023-02-28T15:46:04;7.90;95.10
7216;DHT22;3649;48.798;9.798;2023-02-28T15:48:34;7.80;95.20
7216;DHT22;3649;48.798;9.798;2023-02-28T15:51:06;7.90;95.30
7216;DHT22;3649;48.798;9.798;2023-02-28T15:53:50;7.90;95.20
7216;DHT22;3649;48.798;9.798;2023-02-28T15:59:03;7.80;95.20
7216;DHT22;3649;48.798;9.798;2023-02-28T16:01:38;7.80;95.20
7216;DHT22;3649;48.798;9.798;2023-02-28T16:04:16;7.80;95.10
7216;DHT22;3649;48.798;9.798;2023-02-28T16:07:04;7.80;95.20
7216;DHT22;3649;48.798;9.798;2023-02-28T16:09:31;7.70;95.20
7216;DHT22;3649;48.798;9.798;2023-02-28T16:12:02;7.60;95.30
7216;DHT22;3649;48.798;9.798;2023-02-28T16:14:30;7.60;95.30
7216;DHT22;3649;48.798;9.798;2023-02-28T16:17:06;7.80;95.40
7216;DHT22;3649;48.798;9.798;2023-02-28T16:19:35;7.70;95.40
7216;DHT22;3649;48.798;9.798;2023-02-28T16:22:02;7.60;95.40
7216;DHT22;3649;48.798;9.798;2023-02-28T16:24:28;7.70;95.40
7216;DHT22;3649;48.798;9.798;2023-02-28T16:26:56;7.70;95.30
7216;DHT22;3649;48.798;9.798;2023-02-28T16:29:30;7.70;95.30
7216;DHT22;3649;48.798;9.798;2023-02-28T16:31:58;7.60;95.40
7216;DHT22;3649;48.798;9.798;2023-02-28T16:34:25;7.60;95.40
7216;DHT22;3649;48.798;9.798;2023-02-28T16:36:53;7.60;95.60
7216;DHT22;3649;48.798;9.798;2023-02-28T16:39:20;7.60;95.70
7216;DHT22;3649;48.798;9.798;2023-02-28T16:41:48;7.60;95.70
7216;DHT22;3649;48.798;9.798;2023-02-28T16:44:29;7.60;95.80
7216;DHT22;3649;48.798;9.798;2023-02-28T16:46:56;7.60;95.80
7216;DHT22;3649;48.798;9.798;2023-02-28T16:49:24;7.60;95.70
7216;DHT22;3649;48.798;9.798;2023-02-28T16:51:51;7.70;95.60
7216;DHT22;3649;48.798;9.798;2023-02-28T16:54:19;7.60;95.60
7216;DHT22;3649;48.798;9.798;2023-02-28T16:56:47;7.70;95.70
7216;DHT22;3649;48.798;9.798;2023-02-28T16:59:24;7.60;96.10
7216;DHT22;3649;48.798;9.798;2023-02-28T17:01:52;7.60;95.90
7216;DHT22;3649;48.798;9.798;2023-02-28T17:04:20;7.50;95.90
7216;DHT22;3649;48.798;9.798;2023-02-28T17:06:47;9.10;96.80
7216;DHT22;3649;48.798;9.798;2023-02-28T17:09:19;7.60;95.90
7216;DHT22;3649;48.798;9.798;2023-02-28T17:11:56;7.60;96.00
7216;DHT22;3649;48.798;9.798;2023-02-28T17:14:23;7.60;96.00
7216;DHT22;3649;48.798;9.798;2023-02-28T17:16:50;7.60;96.00
7216;DHT22;3649;48.798;9.798;2023-02-28T17:19:18;7.50;96.00
7216;DHT22;3649;48.798;9.798;2023-02-28T17:21:45;7.60;96.10
7216;DHT22;3649;48.798;9.798;2023-02-28T17:24:12;9.00;96.70
7216;DHT22;3649;48.798;9.798;2023-02-28T17:26:44;8.80;96.70
7216;DHT22;3649;48.798;9.798;2023-02-28T17:29:21;7.40;96.20
7216;DHT22;3649;48.798;9.798;2023-02-28T17:31:48;7.40;96.30
7216;DHT22;3649;48.798;9.798;2023-02-28T17:34:15;7.30;96.40
7216;DHT22;3649;48.798;9.798;2023-02-28T17:36:46;7.30;96.40
7216;DHT22;3649;48.798;9.798;2023-02-28T17:39:14;7.20;96.40
7216;DHT22;3649;48.798;9.798;2023-02-28T17:41:42;6.20;96.20
7216;DHT22;3649;48.798;9.798;2023-02-28T17:44:09;8.00;97.10
7216;DHT22;3649;48.798;9.798;2023-02-28T17:46:37;6.60;96.50
7216;DHT22;3649;48.798;9.798;2023-02-28T17:49:04;7.10;96.90
7216;DHT22;3649;48.798;9.798;2023-02-28T17:51:32;7.00;96.80
7216;DHT22;3649;48.798;9.798;2023-02-28T17:53:59;7.00;97.00
7216;DHT22;3649;48.798;9.798;2023-02-28T17:56:26;7.00;97.00
7216;DHT22;3649;48.798;9.798;2023-02-28T17:58:55;6.90;97.20
7216;DHT22;3649;48.798;9.798;2023-02-28T18:01:23;6.90;97.30
7216;DHT22;3649;48.798;9.798;2023-02-28T18:03:54;6.80;97.30
7216;DHT22;3649;48.798;9.798;2023-02-28T18:06:25;6.80;97.40
7216;DHT22;3649;48.798;9.798;2023-02-28T18:08:54;6.70;97.50
7216;DHT22;3649;48.798;9.798;2023-02-28T18:11:22;6.70;97.60
7216;DHT22;3649;48.798;9.798;2023-02-28T18:13:53;6.60;97.60
7216;DHT22;3649;48.798;9.798;2023-02-28T18:16:24;6.50;97.80
7216;DHT22;3649;48.798;9.798;2023-02-28T18:18:51;6.40;97.80
7216;DHT22;3649;48.798;9.798;2023-02-28T18:21:18;6.40;98.00
7216;DHT22;3649;48.798;9.798;2023-02-28T18:23:45;7.80;98.60
7216;DHT22;3649;48.798;9.798;2023-02-28T18:26:17;6.30;98.00
7216;DHT22;3649;48.798;9.798;2023-02-28T18:28:45;6.30;98.00
7216;DHT22;3649;48.798;9.798;2023-02-28T18:31:14;6.20;98.20
7216;DHT22;3649;48.798;9.798;2023-02-28T18:33:43;6.30;98.20
7216;DHT22;3649;48.798;9.798;2023-02-28T18:36:10;7.00;98.60
7216;DHT22;3649;48.798;9.798;2023-02-28T18:38:37;6.20;98.40
7216;DHT22;3649;48.798;9.798;2023-02-28T18:41:05;6.20;98.50
7216;DHT22;3649;48.798;9.798;2023-02-28T18:43:34;6.20;98.50
7216;DHT22;3649;48.798;9.798;2023-02-28T18:46:10;6.20;98.50
7216;DHT22;3649;48.798;9.798;2023-02-28T18:48:38;6.10;98.50
7216;DHT22;3649;48.798;9.798;2023-02-28T18:51:16;6.10;98.40
7216;DHT22;3649;48.798;9.798;2023-02-28T18:53:43;6.00;98.50
7216;DHT22;3649;48.798;9.798;2023-02-28T18:56:13;6.00;98.70
7216;DHT22;3649;48.798;9.798;2023-02-28T18:58:41;6.00;98.60
7216;DHT22;3649;48.798;9.798;2023-02-28T19:01:21;6.00;98.60
7216;DHT22;3649;48.798;9.798;2023-02-28T19:03:49;6.00;98.60